Time;durP1;ratioP1;P1;durP2;ratioP2;P2;SDS_P1;SDS_P2;PMS_P1;PMS_P2;Temp;Humidity;BMP_temperature;BMP_pressure;BME280_temperature;BME280_humidity;BME280_pressure;Samples;Min_cycle;Max_cycle;Signal;HPM_P1;HPM_P2
2022/04/14 00:01:22;;;;;;;;;17.75;14.50;;;;;16.34;60.69;101719.88;6062712;23;45512;-79
2022/04/14 00:03:47;;;;;;;;;21.75;19.50;;;;;16.30;61.08;101724.34;6178803;23;45308;-78
2022/04/14 00:13:29;;;;;;;;;;;;;;;;;;;;;
2022/04/14 00:15:54;;;;;;;;;22.50;20.25;;;;;16.17;61.42;101723.63;6092345;23;72517;-80
2022/04/14 00:18:20;;;;;;;;;20.75;20.00;;;;;16.18;61.37;101727.16;6071188;23;45283;-79
2022/04/14 00:20:46;;;;;;;;;23.25;20.50;;;;;16.19;61.43;101729.75;6071046;23;45271;-79
2022/04/14 00:23:11;;;;;;;;;22.50;21.75;;;;;16.15;61.82;101735.16;6156616;23;46184;-79
2022/04/14 00:25:37;;;;;;;;;19.00;17.50;;;;;16.02;61.68;101729.09;6160806;23;45347;-80
2022/04/14 00:28:02;;;;;;;;;20.00;17.00;;;;;16.05;61.78;101739.69;6161741;23;45390;-81
2022/04/14 00:30:28;;;;;;;;;21.00;21.00;;;;;15.98;61.90;101732.66;6161752;23;45589;-82
2022/04/14 00:32:54;;;;;;;;;9.50;8.75;;;;;16.00;61.71;101739.72;6161704;23;48162;-81
2022/04/14 00:35:19;;;;;;;;;16.50;15.50;;;;;15.93;61.81;101734.47;6161953;23;45247;-82
2022/04/14 00:37:45;;;;;;;;;19.50;19.50;;;;;15.91;62.21;101733.63;6189641;23;45123;-82
2022/04/14 00:40:12;;;;;;;;;17.00;16.00;;;;;15.96;62.10;101738.00;6162528;23;45243;-82
2022/04/14 00:42:37;;;;;;;;;18.00;16.50;;;;;15.90;62.27;101730.06;6189600;23;45879;-82
2022/04/14 00:45:03;;;;;;;;;16.75;16.75;;;;;15.92;62.46;101733.59;6162463;23;45496;-80
2022/04/14 00:47:29;;;;;;;;;9.75;9.00;;;;;15.85;62.51;101723.91;6161700;23;45251;-82
2022/04/14 00:49:55;;;;;;;;;15.75;15.75;;;;;15.89;62.44;101738.94;6186553;23;45369;-81
2022/04/14 00:52:22;;;;;;;;;19.25;17.25;;;;;15.84;62.16;101736.31;6188123;23;46229;-82
2022/04/14 00:54:48;;;;;;;;;18.00;17.00;;;;;15.84;62.41;101735.44;6186299;23;45321;-82
2022/04/14 00:57:14;;;;;;;;;18.75;18.75;;;;;15.78;62.61;101728.44;6188196;23;45402;-82
2022/04/14 00:59:41;;;;;;;;;17.00;15.50;;;;;15.65;63.02;101713.47;6188524;23;45368;-82
2022/04/14 01:02:08;;;;;;;;;16.50;15.25;;;;;15.70;62.85;101732.06;6161596;23;47268;-82
2022/04/14 01:04:35;;;;;;;;;17.75;17.00;;;;;15.68;62.98;101729.38;6186366;23;45843;-81
2022/04/14 01:07:01;;;;;;;;;18.00;15.50;;;;;15.64;63.35;101727.66;6187894;23;45364;-81
2022/04/14 01:09:29;;;;;;;;;16.75;14.25;;;;;15.63;63.21;101734.72;6187523;23;45415;-81
2022/04/14 01:11:55;;;;;;;;;13.75;13.75;;;;;15.64;63.31;101743.56;6185757;23;48218;-81
2022/04/14 01:14:31;;;;;;;;;14.00;13.75;;;;;15.61;63.47;101746.22;6162077;23;45580;-82
2022/04/14 01:17:04;;;;;;;;;16.75;13.75;;;;;15.50;63.47;101734.81;6162374;23;45142;-81
2022/04/14 01:19:30;;;;;;;;;15.75;15.75;;;;;15.49;63.66;101730.44;6187351;23;45422;-81
2022/04/14 01:22:00;;;;;;;;;14.25;14.25;;;;;15.48;64.04;101739.28;6187546;23;47210;-81
2022/04/14 01:24:26;;;;;;;;;17.00;14.50;;;;;15.43;63.84;101731.38;6162648;23;45207;-81
2022/04/14 01:26:52;;;;;;;;;13.50;12.00;;;;;15.43;63.74;101731.38;6190654;23;45368;-81
2022/04/14 01:29:24;;;;;;;;;14.00;13.25;;;;;15.43;64.08;101736.66;6188389;23;45474;-81
2022/04/14 01:31:51;;;;;;;;;12.25;12.25;;;;;15.38;64.18;101731.38;6163531;23;48067;-81
2022/04/14 01:34:17;;;;;;;;;11.50;11.50;;;;;15.39;64.35;101735.78;6188901;23;45384;-81
2022/04/14 01:36:43;;;;;;;;;18.25;15.75;;;;;15.39;64.22;101733.13;6192887;23;45376;-81
2022/04/14 01:39:10;;;;;;;;;14.25;14.00;;;;;15.36;64.09;101722.56;6167872;23;45553;-82
2022/04/14 01:41:37;;;;;;;;;12.25;10.75;;;;;15.40;64.21;101739.34;6194223;23;45363;-82
2022/04/14 01:44:03;;;;;;;;;12.00;12.00;;;;;15.36;64.56;101727.84;6165326;23;45187;-82
2022/04/14 01:46:29;;;;;;;;;13.00;12.00;;;;;15.39;64.48;101730.47;6163968;23;45228;-81
2022/04/14 01:48:54;;;;;;;;;16.75;15.00;;;;;15.38;64.42;101735.81;6164269;23;45175;-81
2022/04/14 01:51:20;;;;;;;;;15.00;12.00;;;;;15.43;64.37;101731.38;6190935;23;45407;-81
2022/04/14 01:53:46;;;;;;;;;14.75;13.75;;;;;15.38;64.68;101722.56;6163719;23;45255;-80
2022/04/14 01:56:11;;;;;;;;;13.00;11.25;;;;;15.35;64.60;101726.09;6163554;23;45374;-81
2022/04/14 01:58:37;;;;;;;;;14.25;12.00;;;;;15.34;64.83;101721.72;6163258;23;45378;-80
2022/04/14 02:01:02;;;;;;;;;13.00;13.00;;;;;15.40;64.74;101734.03;6157576;23;47189;-81
2022/04/14 02:03:28;;;;;;;;;14.25;13.25;;;;;15.37;64.68;101726.06;6158519;23;45298;-81
2022/04/14 02:05:53;;;;;;;;;13.25;12.00;;;;;15.37;64.43;101732.28;6160749;23;45288;-81
2022/04/14 02:08:19;;;;;;;;;12.75;12.75;;;;;15.30;64.74;101733.22;6158642;23;45556;-81
2022/04/14 02:10:45;;;;;;;;;15.00;14.00;;;;;15.27;64.62;101725.28;6158189;23;47374;-81
2022/04/14 02:13:10;;;;;;;;;16.00;14.50;;;;;15.29;64.62;101734.13;6158326;23;45289;-81
2022/04/14 02:15:36;;;;;;;;;13.00;12.00;;;;;15.32;64.82;101738.53;6158313;23;45290;-82
2022/04/14 02:18:01;;;;;;;;;14.50;13.00;;;;;15.27;64.78;101730.59;6160708;23;45198;-81
2022/04/14 02:20:26;;;;;;;;;14.50;12.25;;;;;15.34;65.01;101736.72;6158729;23;47878;-81
2022/04/14 02:22:52;;;;;;;;;13.75;13.25;;;;;15.29;65.03;101730.56;6160447;23;45153;-82
2022/04/14 02:25:18;;;;;;;;;14.00;14.00;;;;;15.24;64.70;101727.09;6158300;23;45196;-82
2022/04/14 02:27:43;;;;;;;;;13.75;12.75;;;;;15.30;64.57;101735.00;6159995;23;45219;-81
2022/04/14 02:30:09;;;;;;;;;12.50;12.50;;;;;15.22;64.75;101735.06;6160093;23;46082;-82
2022/04/14 02:32:34;;;;;;;;;12.50;11.00;;;;;15.23;64.62;101739.44;6159967;23;45441;-81
2022/04/14 02:35:01;;;;;;;;;16.00;15.00;;;;;15.24;64.68;101735.06;6161738;23;45339;-81
2022/04/14 02:37:27;;;;;;;;;14.75;11.50;;;;;15.20;64.66;101739.47;6162068;23;45354;-82
2022/04/14 02:39:52;;;;;;;;;19.25;16.75;;;;;15.08;64.87;101726.31;6163164;23;45913;-80
2022/04/14 02:42:18;;;;;;;;;15.25;14.00;;;;;15.11;64.94;101740.44;6160746;23;45227;-81
2022/04/14 02:44:43;;;;;;;;;17.00;15.75;;;;;15.11;64.85;101737.78;6160718;23;45348;-81
2022/04/14 02:47:09;;;;;;;;;18.00;17.50;;;;;15.07;65.08;101733.38;6159947;23;45360;-81
2022/04/14 02:49:36;;;;;;;;;21.00;19.00;;;;;15.05;65.50;101731.63;6158498;23;47394;-81
2022/04/14 02:52:02;;;;;;;;;22.75;21.25;;;;;14.99;64.99;101728.13;6159890;23;45095;-82
2022/04/14 02:54:27;;;;;;;;;25.50;24.25;;;;;15.00;65.13;101729.88;6159666;23;45185;-81
2022/04/14 02:56:53;;;;;;;;;23.25;23.00;;;;;15.07;65.41;101748.41;6157322;23;45272;-81
2022/04/14 02:59:18;;;;;;;;;23.50;20.50;;;;;15.09;65.35;101754.59;6157276;23;45478;-81
2022/04/14 03:01:43;;;;;;;;;20.75;19.00;;;;;15.06;65.46;101758.13;6157217;23;45196;-81
2022/04/14 03:04:09;;;;;;;;;18.75;17.00;;;;;15.02;65.17;101753.72;6157865;23;45342;-81
2022/04/14 03:06:34;;;;;;;;;15.00;14.75;;;;;14.99;65.17;101751.09;6157638;23;45367;-82
2022/04/14 03:09:00;;;;;;;;;19.25;17.25;;;;;14.94;65.57;101743.19;6157370;23;46946;-81
2022/04/14 03:11:25;;;;;;;;;19.50;19.00;;;;;14.86;65.18;101739.69;6157639;23;46023;-81
2022/04/14 03:13:51;;;;;;;;;21.25;20.25;;;;;14.92;65.83;101744.09;6157747;23;45219;-81
2022/04/14 03:16:16;;;;;;;;;21.00;19.50;;;;;14.84;65.28;101737.94;6182572;23;45276;-81
2022/04/14 03:18:42;;;;;;;;;19.00;16.50;;;;;14.81;65.35;101741.50;6157719;23;46508;-81
2022/04/14 03:21:07;;;;;;;;;23.00;20.75;;;;;14.76;65.63;101743.28;6159728;23;45366;-80
2022/04/14 03:23:33;;;;;;;;;19.25;19.25;;;;;14.74;65.52;101747.72;6158026;23;45389;-81
2022/04/14 03:25:58;;;;;;;;;21.25;20.00;;;;;14.73;65.43;101756.56;6157534;23;45414;-81
2022/04/14 03:28:24;;;;;;;;;18.75;18.75;;;;;14.71;65.31;101760.97;6157198;23;45990;-81
2022/04/14 03:30:50;;;;;;;;;19.50;17.75;;;;;14.68;65.64;101761.00;6183176;23;45289;-80
2022/04/14 03:33:15;;;;;;;;;18.25;17.00;;;;;14.60;65.74;101755.72;6159109;23;45162;-80
2022/04/14 03:35:41;;;;;;;;;22.00;21.00;;;;;14.64;65.53;101767.19;6158162;23;46108;-82
2022/04/14 03:38:06;;;;;;;;;20.50;20.25;;;;;14.52;65.41;101757.50;6160613;23;45375;-82
2022/04/14 03:40:32;;;;;;;;;31.00;26.00;;;;;14.61;65.40;101772.50;6158677;23;45299;-83
2022/04/14 03:42:57;;;;;;;;;25.50;23.50;;;;;14.52;65.74;101757.50;6159604;23;45213;-83
2022/04/14 03:45:23;;;;;;;;;25.75;24.00;;;;;14.60;65.64;101773.41;6158455;23;45249;-84
2022/04/14 03:47:48;;;;;;;;;22.00;21.00;;;;;14.60;66.16;101768.09;6159823;23;45375;-83
2022/04/14 03:50:14;;;;;;;;;27.25;26.50;;;;;14.59;65.87;101769.84;6183036;23;45261;-83
2022/04/14 03:52:39;;;;;;;;;23.50;22.00;;;;;14.58;65.71;101764.56;6161110;23;45292;-83
2022/04/14 03:55:06;;;;;;;;;20.75;19.75;;;;;14.55;66.21;101766.34;6157929;23;45592;-82
2022/04/14 03:57:31;;;;;;;;;24.50;22.50;;;;;14.57;65.81;101766.34;6157829;23;48188;-82
2022/04/14 03:59:57;;;;;;;;;23.00;19.25;;;;;14.54;65.85;101758.38;6158058;23;46111;-82
2022/04/14 04:02:22;;;;;;;;;26.50;22.50;;;;;14.43;66.01;101738.97;6158174;23;45359;-82
2022/04/14 04:04:48;;;;;;;;;21.25;19.50;;;;;14.49;66.16;101752.22;6158182;23;45400;-83
2022/04/14 04:07:13;;;;;;;;;20.50;19.50;;;;;14.46;66.51;101754.84;6183031;23;46584;-82
2022/04/14 04:09:39;;;;;;;;;19.50;17.25;;;;;14.46;66.18;101763.69;6157635;23;45430;-82
2022/04/14 04:12:05;;;;;;;;;17.00;16.25;;;;;14.39;66.49;101747.81;6157883;23;45328;-82
2022/04/14 04:14:30;;;;;;;;;19.75;19.00;;;;;14.42;66.53;101759.28;6159063;23;45169;-83
2022/04/14 04:16:56;;;;;;;;;18.25;18.00;;;;;14.39;66.13;101764.59;6157084;23;47328;-83
2022/04/14 04:19:21;;;;;;;;;15.75;15.50;;;;;14.40;66.30;101771.63;6159651;23;45184;-83
2022/04/14 04:21:47;;;;;;;;;19.25;18.00;;;;;14.35;66.13;101770.78;6157752;23;45134;-83
2022/04/14 04:24:12;;;;;;;;;16.00;13.00;;;;;14.34;66.53;101775.19;6159449;23;45423;-83
2022/04/14 04:26:38;;;;;;;;;16.00;16.00;;;;;14.34;66.74;101777.84;6159582;23;46212;-83
2022/04/14 04:29:03;;;;;;;;;17.25;16.50;;;;;14.32;66.70;101765.47;6158942;23;45194;-83
2022/04/14 04:31:29;;;;;;;;;15.50;15.25;;;;;14.21;66.52;101764.63;6157475;23;45123;-83
2022/04/14 04:33:54;;;;;;;;;16.00;14.50;;;;;14.21;66.80;101778.75;6156942;23;45478;-82
2022/04/14 04:36:20;;;;;;;;;16.50;16.25;;;;;14.18;66.56;101776.13;6157128;23;47039;-82
2022/04/14 04:38:46;;;;;;;;;19.50;17.00;;;;;14.22;66.64;101791.13;6157085;23;45683;-83
2022/04/14 04:41:12;;;;;;;;;20.75;17.25;;;;;14.11;66.92;101783.22;6160182;23;45241;-82
2022/04/14 04:43:38;;;;;;;;;21.00;21.00;;;;;14.12;66.57;101792.03;6158310;23;45410;-83
2022/04/14 04:46:03;;;;;;;;;18.50;17.00;;;;;14.06;66.82;101789.38;6158957;23;47317;-82
2022/04/14 04:48:29;;;;;;;;;17.00;15.50;;;;;14.06;67.01;101794.66;6159614;23;45913;-83
2022/04/14 04:50:54;;;;;;;;;21.75;20.50;;;;;14.02;67.05;101791.16;6158801;23;45305;-82
2022/04/14 04:53:20;;;;;;;;;19.00;18.25;;;;;13.96;67.02;101791.16;6158924;23;45632;-83
2022/04/14 04:55:45;;;;;;;;;20.50;19.00;;;;;13.97;67.02;101792.03;6160548;23;45378;-81
2022/04/14 04:58:11;;;;;;;;;22.50;20.00;;;;;13.96;67.19;101796.47;6158005;23;45176;-82
2022/04/14 05:00:36;;;;;;;;;21.00;21.00;;;;;13.92;67.40;101784.09;6157811;23;45179;-82
2022/04/14 05:03:08;;;;;;;;;23.00;19.00;;;;;13.90;67.34;101792.06;6158377;23;45206;-82
2022/04/14 05:05:33;;;;;;;;;22.50;20.00;;;;;13.93;67.09;101790.28;6180554;23;48506;-82
2022/04/14 05:08:19;;;;;;;;;20.00;19.00;;;;;13.93;67.21;101801.75;6158514;23;45385;-82
2022/04/14 05:10:44;;;;;;;;;22.75;22.00;;;;;13.89;67.30;101800.84;6154856;23;45394;-82
2022/04/14 05:13:10;;;;;;;;;23.25;21.75;;;;;13.82;67.59;101779.69;6154781;23;45387;-82
2022/04/14 05:15:36;;;;;;;;;23.00;22.00;;;;;13.83;67.27;101790.28;6157304;23;45490;-83
2022/04/14 05:18:02;;;;;;;;;21.75;21.50;;;;;13.90;67.20;101796.47;6155467;23;45498;-83
2022/04/14 05:20:27;;;;;;;;;20.00;19.75;;;;;13.89;67.30;101800.84;6180549;23;45262;-83
2022/04/14 05:22:52;;;;;;;;;25.50;22.00;;;;;13.81;67.39;101785.88;6180693;23;45422;-83
2022/04/14 05:25:18;;;;;;;;;21.50;19.25;;;;;13.85;67.22;101801.75;6157410;23;46009;-83
2022/04/14 05:27:43;;;;;;;;;21.50;19.50;;;;;13.84;67.21;101799.09;6155120;23;45184;-83
2022/04/14 05:30:11;;;;;;;;;23.75;22.25;;;;;13.92;67.53;101815.84;6155688;23;45195;-83
2022/04/14 05:32:38;;;;;;;;;25.50;21.50;;;;;13.87;67.35;101812.31;6157396;23;45367;-83
2022/04/14 05:35:06;;;;;;;;;16.25;15.25;;;;;13.86;67.35;101811.44;6155331;23;46319;-83
2022/04/14 05:37:32;;;;;;;;;21.75;19.75;;;;;13.84;67.36;101814.97;6155570;23;45190;-82
2022/04/14 05:39:57;;;;;;;;;22.00;19.75;;;;;13.85;67.20;101817.63;6155612;23;45195;-83
2022/04/14 05:42:23;;;;;;;;;21.00;19.25;;;;;13.86;67.70;101824.69;6179804;23;45186;-83
2022/04/14 05:44:48;;;;;;;;;24.50;23.25;;;;;13.78;67.49;101804.41;6157115;23;46168;-83
2022/04/14 05:47:14;;;;;;;;;27.00;21.75;;;;;13.81;67.79;101813.22;6157404;23;45240;-83
2022/04/14 05:49:40;;;;;;;;;24.50;22.75;;;;;13.86;67.43;101822.03;6157622;23;45466;-83
2022/04/14 05:52:06;;;;;;;;;23.00;21.75;;;;;13.83;67.71;101814.09;6155140;23;45412;-83
2022/04/14 05:54:31;;;;;;;;;23.50;22.50;;;;;13.86;67.20;101815.88;6155272;23;48407;-83
2022/04/14 05:56:57;;;;;;;;;24.75;22.25;;;;;13.90;67.62;101815.00;6154660;23;45418;-83
2022/04/14 05:59:22;;;;;;;;;30.50;28.25;;;;;13.88;67.62;101812.34;6155348;23;45354;-84
2022/04/14 06:01:48;;;;;;;;;26.00;23.25;;;;;13.93;67.34;101835.31;6155350;23;45455;-84
2022/04/14 06:04:17;;;;;;;;;27.25;24.50;;;;;13.84;67.54;101829.09;6158500;23;46762;-83
2022/04/14 06:06:42;;;;;;;;;27.50;25.50;;;;;13.89;67.05;101844.97;6155208;23;45203;-83
2022/04/14 06:09:08;;;;;;;;;29.25;28.25;;;;;13.90;67.27;101854.72;6155578;23;45128;-84
2022/04/14 06:11:34;;;;;;;;;29.25;26.50;;;;;13.81;67.50;101846.75;6179993;23;45565;-84
2022/04/14 06:13:59;;;;;;;;;29.50;26.75;;;;;13.75;67.41;101846.75;6154900;23;45880;-83
2022/04/14 06:16:25;;;;;;;;;31.00;31.00;;;;;13.75;67.19;101850.28;6180236;23;45866;-83
2022/04/14 06:18:50;;;;;;;;;31.75;30.50;;;;;13.72;67.30;101849.41;6157304;23;45335;-83
2022/04/14 06:21:16;;;;;;;;;32.75;30.50;;;;;13.82;67.49;101867.94;6157146;23;44768;-83
2022/04/14 06:23:41;;;;;;;;;30.50;26.00;;;;;13.82;67.67;101859.09;6157037;23;45368;-83
2022/04/14 06:26:09;;;;;;;;;29.75;27.75;;;;;13.87;67.66;101852.94;6157081;23;45339;-83
2022/04/14 06:28:34;;;;;;;;;29.50;28.00;;;;;13.94;67.70;101859.09;6157039;23;45290;-83
2022/04/14 06:31:01;;;;;;;;;29.25;29.00;;;;;13.97;67.81;101855.59;6154956;23;45550;-83
2022/04/14 06:33:30;;;;;;;;;29.25;28.50;;;;;14.11;67.23;101875.00;6157551;23;46105;-84
2022/04/14 06:35:56;;;;;;;;;31.00;30.25;;;;;14.11;67.43;101857.34;6156699;23;45349;-84
2022/04/14 06:38:24;;;;;;;;;27.00;26.25;;;;;14.15;66.91;101862.66;6158788;23;45326;-84
2022/04/14 06:40:52;;;;;;;;;27.00;25.50;;;;;14.29;66.98;101879.41;6156175;23;45393;-83
2022/04/14 06:43:17;;;;;;;;;29.50;27.75;;;;;14.25;66.95;101864.41;6156334;23;47915;-84
2022/04/14 06:45:42;;;;;;;;;28.25;24.25;;;;;14.27;66.89;101874.13;6158250;23;45175;-83
2022/04/14 06:48:09;;;;;;;;;28.25;27.75;;;;;14.30;66.76;101879.41;6157847;23;45699;-83
2022/04/14 06:50:35;;;;;;;;;34.75;32.00;;;;;14.28;67.00;101873.22;6156681;23;45579;-84
2022/04/14 06:53:00;;;;;;;;;27.50;27.50;;;;;14.30;66.86;101875.84;6155006;23;47086;-84
2022/04/14 06:55:26;;;;;;;;;29.25;29.25;;;;;14.30;67.20;101874.13;6155058;23;45255;-83
2022/04/14 06:58:20;;;;;;;;;33.50;30.00;;;;;14.37;66.80;101882.03;6158691;23;45336;-83
2022/04/14 07:00:46;;;;;;;;;31.00;28.00;;;;;14.33;67.22;101874.09;6156837;23;45197;-82
2022/04/14 07:03:14;;;;;;;;;28.25;27.50;;;;;14.46;67.09;101882.94;6183430;23;47173;-84
2022/04/14 07:05:40;;;;;;;;;30.50;28.00;;;;;14.47;67.17;101874.09;6156132;23;45205;-83
2022/04/14 07:08:09;;;;;;;;;37.50;33.75;;;;;14.49;66.95;101868.78;6155103;23;45433;-83
2022/04/14 07:10:34;;;;;;;;;37.50;34.00;;;;;14.53;66.91;101868.81;6179182;23;45172;-83
2022/04/14 07:13:00;;;;;;;;;32.50;27.75;;;;;14.55;66.82;101879.41;6154557;23;47113;-83
2022/04/14 07:15:25;;;;;;;;;39.00;35.25;;;;;14.55;67.10;101872.34;6180522;23;45524;-84
2022/04/14 07:17:53;;;;;;;;;37.25;34.75;;;;;14.57;67.09;101877.66;6157775;23;45373;-83
2022/04/14 07:20:19;;;;;;;;;47.25;39.50;;;;;14.55;66.91;101872.34;6155903;23;45385;-84
2022/04/14 07:23:02;;;;;;;;;50.00;39.00;;;;;14.59;66.78;101881.16;6179676;23;48294;-83
2022/04/14 07:25:30;;;;;;;;;49.00;40.75;;;;;14.56;66.73;101876.75;6154628;23;45364;-83
2022/04/14 07:27:58;;;;;;;;;52.00;41.75;;;;;14.56;66.66;101876.75;6156180;23;45265;-84
2022/04/14 07:30:26;;;;;;;;;42.25;36.25;;;;;14.70;67.00;101894.38;6156831;23;45142;-83
2022/04/14 07:32:53;;;;;;;;;50.00;40.50;;;;;14.71;67.24;101890.88;6179303;23;47931;-83
2022/04/14 07:35:22;;;;;;;;;48.25;39.50;;;;;14.73;67.04;101889.97;6154762;23;45372;-84
2022/04/14 07:37:48;;;;;;;;;48.50;41.00;;;;;14.82;66.59;101891.72;6154770;23;45174;-82
2022/04/14 08:18:27;;;;;;;;;31.25;28.00;;;;;15.87;64.54;101905.38;5917661;23;45210;-82
2022/04/14 08:20:57;;;;;;;;;33.25;32.00;;;;;15.94;64.51;101895.59;5992861;23;44870;-85
2022/04/14 08:23:25;;;;;;;;;33.75;30.25;;;;;16.02;64.07;101907.06;6063290;23;45274;-86
2022/04/14 08:25:53;;;;;;;;;16.50;12.25;;;;;16.01;64.16;101895.56;6179173;23;44587;-86
2022/04/14 08:28:41;;;;;;;;;33.75;30.75;;;;;16.18;63.66;101903.38;6184114;23;44621;-85
2022/04/14 08:31:05;;;;;;;;;36.25;32.75;;;;;16.30;63.80;101905.94;6208620;22;44765;-83
2022/04/14 08:33:30;;;;;;;;;42.50;34.00;;;;;16.40;63.18;101897.88;6179422;23;46291;-82
2022/04/14 08:35:55;;;;;;;;;39.75;34.50;;;;;16.47;63.33;101905.78;6179070;23;44717;-81
2022/04/14 08:38:22;;;;;;;;;36.25;32.75;;;;;16.58;62.93;101907.47;6179422;23;44666;-83
2022/04/14 08:40:50;;;;;;;;;27.50;25.75;;;;;16.61;62.65;101891.47;6181899;23;45357;-84
2022/04/14 08:43:17;;;;;;;;;34.25;31.00;;;;;16.71;62.53;101888.69;6208610;23;45725;-84
2022/04/14 08:46:00;;;;;;;;;;;;;;;;;;;;;
2022/04/14 08:48:27;;;;;;;;;26.00;26.00;;;;;16.97;61.37;101912.38;6205682;23;67992;-81
2022/04/14 08:50:59;;;;;;;;;24.00;21.00;;;;;17.05;60.95;101904.28;6204171;22;45148;-85
2022/04/14 08:53:27;;;;;;;;;28.00;26.50;;;;;17.20;60.81;101913.88;6187325;23;46125;-84
2022/04/14 08:55:56;;;;;;;;;25.50;23.25;;;;;17.30;60.67;101914.66;6160372;23;45151;-84
2022/04/14 09:01:06;;;;;;;;;25.25;23.75;;;;;17.49;60.26;101920.63;6181066;23;45448;-77
2022/04/14 09:03:37;;;;;;;;;23.00;22.25;;;;;17.56;60.18;101911.63;6185679;23;45383;-82
2022/04/14 09:06:03;;;;;;;;;28.25;24.50;;;;;17.62;59.75;101908.91;6158318;23;45552;-80
2022/04/14 09:08:28;;;;;;;;;27.50;25.50;;;;;17.70;59.45;101908.78;6158341;23;45304;-81
2022/04/14 09:10:54;;;;;;;;;26.50;23.25;;;;;17.74;58.79;101907.81;6184615;23;45651;-80
2022/04/14 09:13:20;;;;;;;;;22.75;21.25;;;;;17.71;57.82;101902.53;6159622;23;47206;-79
2022/04/14 09:15:47;;;;;;;;;22.50;20.00;;;;;17.77;58.18;101913.09;6158087;23;45562;-79
2022/04/14 09:18:14;;;;;;;;;27.50;25.25;;;;;17.79;57.76;101903.34;6185207;23;45348;-79
2022/04/14 09:20:42;;;;;;;;;20.25;20.25;;;;;17.83;57.77;101908.59;6183852;23;45593;-79
2022/04/14 09:23:18;;;;;;;;;23.75;22.25;;;;;17.92;57.83;101912.03;6183682;23;45517;-79
2022/04/14 09:25:44;;;;;;;;;26.00;23.50;;;;;17.97;57.54;101903.06;6183210;23;45262;-82
2022/04/14 09:28:15;;;;;;;;;28.50;24.25;;;;;18.10;58.12;101908.22;6181915;23;45451;-82
2022/04/14 09:30:56;;;;;;;;;20.00;16.25;;;;;18.15;57.63;101896.56;6185067;23;45339;-81
2022/04/14 09:33:22;;;;;;;;;24.00;22.00;;;;;18.25;57.28;101902.59;6184413;23;46246;-82
2022/04/14 09:36:15;;;;;;;;;25.75;21.25;;;;;18.30;57.07;101896.28;6184979;23;45369;-80
2022/04/14 09:39:05;;;;;;;;;24.75;21.75;;;;;18.45;56.76;101907.59;6159583;23;45358;-83
2022/04/14 09:41:41;;;;;;;;;24.00;22.50;;;;;18.44;56.79;101882.72;6158360;23;45203;-82
2022/04/14 09:44:12;;;;;;;;;19.25;18.75;;;;;18.61;56.47;101897.53;6158798;23;47224;-84
2022/04/14 09:46:42;;;;;;;;;16.00;15.00;;;;;18.69;56.17;101899.16;6188397;23;45425;-80
2022/04/14 09:49:08;;;;;;;;;16.50;14.00;;;;;18.67;55.45;101881.41;6155050;23;45279;-80
2022/04/14 09:51:41;;;;;;;;;12.75;12.75;;;;;18.76;55.12;101896.38;6156938;23;45331;-81
2022/04/14 09:54:18;;;;;;;;;13.00;11.50;;;;;18.84;53.98;101902.44;6182244;23;45952;-84
2022/04/14 09:56:53;;;;;;;;;12.75;12.75;;;;;18.91;54.84;101901.44;6183801;23;45432;-82
2022/04/14 09:59:28;;;;;;;;;16.25;14.25;;;;;18.95;54.23;101901.34;6186818;23;45222;-81
2022/04/14 10:02:17;;;;;;;;;13.75;13.50;;;;;19.02;54.10;101890.53;6158903;23;45315;-82
2022/04/14 10:04:47;;;;;;;;;14.75;14.75;;;;;19.14;53.75;101908.97;6185564;23;45383;-80
2022/04/14 10:07:19;;;;;;;;;13.00;10.75;;;;;19.21;53.50;101902.59;6159608;23;45659;-81
2022/04/14 10:09:48;;;;;;;;;15.75;12.25;;;;;19.27;53.29;101905.16;6159556;23;45365;-81
2022/04/14 10:12:34;;;;;;;;;14.25;14.25;;;;;19.36;52.98;101910.28;6158365;23;45582;-82
2022/04/14 10:15:07;;;;;;;;;12.75;12.75;;;;;19.38;52.48;101883.56;6183558;23;48101;-81
2022/04/14 10:17:37;;;;;;;;;15.25;15.00;;;;;19.46;52.49;101886.94;6159149;23;45706;-79
2022/04/14 10:20:05;;;;;;;;;14.50;13.25;;;;;19.59;52.07;101890.19;6157945;23;45464;-79
2022/04/14 10:22:31;;;;;;;;;14.75;14.75;;;;;19.63;50.96;101883.88;6185808;23;45244;-79
2022/04/14 10:24:57;;;;;;;;;14.50;14.50;;;;;19.59;50.92;101874.16;6193080;23;45739;-79
2022/04/14 10:27:25;;;;;;;;;15.00;14.00;;;;;19.66;51.36;101877.56;6186015;23;45174;-81
2022/04/14 10:29:53;;;;;;;;;12.50;12.00;;;;;19.82;51.33;101884.34;6185256;23;45287;-81
2022/04/14 10:32:21;;;;;;;;;12.25;11.25;;;;;19.90;50.05;101884.16;6159828;23;45317;-82
2022/04/14 10:34:46;;;;;;;;;13.25;11.00;;;;;20.02;50.16;101884.75;6158796;23;45908;-82
2022/04/14 10:37:21;;;;;;;;;13.50;12.00;;;;;20.11;49.69;101882.75;6159258;23;45244;-81
2022/04/14 10:39:50;;;;;;;;;12.75;12.75;;;;;20.21;48.67;101884.28;6184976;23;45297;-80
2022/04/14 10:42:26;;;;;;;;;13.50;11.75;;;;;20.20;49.31;101870.00;6184428;23;45471;-82
2022/04/14 10:44:53;;;;;;;;;9.50;9.50;;;;;20.37;49.62;101874.03;6186276;23;46535;-80
2022/04/14 10:47:43;;;;;;;;;14.00;11.50;;;;;20.53;49.73;101874.50;6156314;23;45456;-81
2022/04/14 10:50:20;;;;;;;;;17.25;15.50;;;;;20.61;48.78;101875.22;6185508;23;45252;-79
2022/04/14 10:53:09;;;;;;;;;15.50;13.50;;;;;20.67;48.32;101885.78;6159919;23;45413;-87
2022/04/14 10:55:37;;;;;;;;;11.00;10.00;;;;;20.68;47.47;101883.03;6159354;23;47378;-87
2022/04/14 10:58:03;;;;;;;;;12.25;9.75;;;;;20.75;47.88;101880.22;6164825;23;45578;-89
2022/04/14 11:00:32;;;;;;;;;13.00;11.75;;;;;20.92;47.22;101881.47;6190017;23;45155;-87
2022/04/14 11:03:02;;;;;;;;;11.50;10.25;;;;;21.07;47.29;101881.97;6191564;23;45221;-89
2022/04/14 11:05:44;;;;;;;;;15.00;15.00;;;;;21.25;47.51;101881.41;6160216;23;46426;-87
2022/04/14 11:08:31;;;;;;;;;16.50;13.00;;;;;21.35;47.16;101876.63;6188730;23;45397;-88
2022/04/14 11:11:11;;;;;;;;;11.00;10.67;;;;;21.47;46.37;101870.09;6159213;23;45252;-86
2022/04/14 11:13:53;;;;;;;;;11.00;11.00;;;;;21.62;46.25;101885.66;6157849;23;45550;-86
2022/04/14 11:16:48;;;;;;;;;9.00;9.00;;;;;21.57;45.08;101882.25;6185949;23;45361;-85
2022/04/14 11:19:19;;;;;;;;;7.67;6.67;;;;;21.64;44.34;101882.94;6158800;23;45118;-86
2022/04/14 11:22:13;;;;;;;;;5.00;5.00;;;;;21.69;42.64;101881.00;6159100;23;45473;-87
2022/04/14 11:24:40;;;;;;;;;5.00;4.33;;;;;21.76;41.96;101880.75;6181579;23;45299;-86
2022/04/14 11:27:19;;;;;;;;;6.00;6.00;;;;;21.89;42.36;101888.38;6185525;23;46143;-88
2022/04/14 11:29:46;;;;;;;;;7.00;5.33;;;;;22.08;41.89;101878.81;6159507;23;45529;-89
2022/04/14 11:32:14;;;;;;;;;5.67;5.67;;;;;22.25;42.08;101878.28;6159692;23;45588;-88
2022/04/14 11:34:40;;;;;;;;;2.00;2.00;;;;;22.48;42.06;101869.44;6184326;23;45284;-89
2022/04/14 11:37:40;;;;;;;;;5.00;5.00;;;;;22.73;41.30;101874.78;6160739;23;47173;-89
2022/04/14 11:40:17;;;;;;;;;4.00;4.00;;;;;22.99;42.02;101872.94;6158979;23;45414;-87
2022/04/14 11:42:46;;;;;;;;;5.00;5.00;;;;;23.17;41.96;101868.69;6159230;23;45329;-87
2022/04/14 11:45:12;;;;;;;;;6.33;6.33;;;;;23.29;40.46;101862.88;6159229;23;45263;-87
2022/04/14 11:47:39;;;;;;;;;5.67;5.67;;;;;23.41;40.68;101875.81;6183258;23;46211;-87
2022/04/14 11:50:06;;;;;;;;;7.00;7.00;;;;;23.40;39.78;101870.50;6183802;23;45223;-87
2022/04/14 11:52:33;;;;;;;;;4.00;4.00;;;;;23.44;39.86;101864.97;6158962;23;45266;-87
2022/04/14 11:54:58;;;;;;;;;4.33;4.00;;;;;23.55;38.45;101870.78;6159453;23;45755;-87
2022/04/14 11:57:28;;;;;;;;;2.67;2.67;;;;;23.62;39.48;101857.06;6157982;23;47285;-86
2022/04/14 12:00:10;;;;;;;;;7.00;5.00;;;;;23.76;38.71;101863.69;6184836;23;45516;-90
2022/04/14 12:02:36;;;;;;;;;4.33;4.33;;;;;23.85;38.94;101865.13;6157570;23;45465;-85
2022/04/14 12:05:02;;;;;;;;;6.00;4.00;;;;;23.89;39.20;101857.78;6158898;23;45481;-85
2022/04/14 12:07:37;;;;;;;;;3.67;3.67;;;;;24.01;38.43;101862.66;6183691;23;48124;-85